sensor_id;sensor_type;location;lat;lon;timestamp;pressure;altitude;pressure_sealevel;temperature;humidity
50592;BME280;36548;50.506;30.834;2023-03-25T00:01:06;99198.05;;;16.25;52.25
50592;BME280;36548;50.506;30.834;2023-03-25T00:02:16;99209.99;;;16.14;52.27
50592;BME280;36548;50.506;30.834;2023-03-25T00:03:31;99199.38;;;16.21;52.28
50592;BME280;36548;50.506;30.834;2023-03-25T00:04:41;99202.69;;;16.06;52.30
50592;BME280;36548;50.506;30.834;2023-03-25T00:05:57;99190.88;;;16.15;52.39
50592;BME280;36548;50.506;30.834;2023-03-25T00:07:07;99201.82;;;16.06;52.37
50592;BME280;36548;50.506;30.834;2023-03-25T00:08:25;99200.54;;;16.18;52.29
50592;BME280;36548;50.506;30.834;2023-03-25T00:09:35;99205.23;;;16.08;52.30
50592;BME280;36548;50.506;30.834;2023-03-25T00:10:56;99190.42;;;16.20;52.13
50592;BME280;36548;50.506;30.834;2023-03-25T00:12:06;99197.95;;;16.08;52.18
50592;BME280;36548;50.506;30.834;2023-03-25T00:13:23;99189.04;;;16.16;52.18
50592;BME280;36548;50.506;30.834;2023-03-25T00:14:33;99193.03;;;16.04;52.18
50592;BME280;36548;50.506;30.834;2023-03-25T00:15:52;99183.25;;;16.11;52.20
50592;BME280;36548;50.506;30.834;2023-03-25T00:17:03;99184.53;;;15.98;52.22
50592;BME280;36548;50.506;30.834;2023-03-25T00:18:20;99194.41;;;16.08;52.21
50592;BME280;36548;50.506;30.834;2023-03-25T00:19:30;99195.84;;;15.94;52.36
50592;BME280;36548;50.506;30.834;2023-03-25T00:20:52;99192.66;;;15.98;52.58
50592;BME280;36548;50.506;30.834;2023-03-25T00:22:08;99188.89;;;15.91;52.60
50592;BME280;36548;50.506;30.834;2023-03-25T00:23:19;99201.28;;;15.76;52.69
50592;BME280;36548;50.506;30.834;2023-03-25T00:24:35;99188.52;;;15.86;52.74
50592;BME280;36548;50.506;30.834;2023-03-25T00:25:44;99194.00;;;15.76;52.74
50592;BME280;36548;50.506;30.834;2023-03-25T00:27:01;99184.64;;;15.89;52.66
50592;BME280;36548;50.506;30.834;2023-03-25T00:28:11;99180.31;;;15.78;52.66
50592;BME280;36548;50.506;30.834;2023-03-25T00:29:28;99173.66;;;15.90;52.59
50592;BME280;36548;50.506;30.834;2023-03-25T00:30:38;99176.31;;;15.82;52.46
50592;BME280;36548;50.506;30.834;2023-03-25T00:31:54;99177.74;;;15.94;52.30
50592;BME280;36548;50.506;30.834;2023-03-25T00:33:04;99178.85;;;15.83;52.23
50592;BME280;36548;50.506;30.834;2023-03-25T00:34:19;99181.94;;;15.89;52.41
50592;BME280;36548;50.506;30.834;2023-03-25T00:35:30;99176.92;;;15.76;52.49
50592;BME280;36548;50.506;30.834;2023-03-25T00:36:46;99174.47;;;15.82;52.57
50592;BME280;36548;50.506;30.834;2023-03-25T00:37:55;99174.52;;;15.73;52.52
50592;BME280;36548;50.506;30.834;2023-03-25T00:39:18;99167.65;;;15.78;52.66
50592;BME280;36548;50.506;30.834;2023-03-25T00:40:29;99180.58;;;15.66;52.71
50592;BME280;36548;50.506;30.834;2023-03-25T00:41:51;99167.78;;;15.77;52.63
50592;BME280;36548;50.506;30.834;2023-03-25T00:43:03;99180.90;;;15.63;52.69
50592;BME280;36548;50.506;30.834;2023-03-25T00:44:20;99170.23;;;15.62;53.09
50592;BME280;36548;50.506;30.834;2023-03-25T00:45:31;99175.75;;;15.52;53.11
50592;BME280;36548;50.506;30.834;2023-03-25T00:46:48;99169.91;;;15.65;53.12
50592;BME280;36548;50.506;30.834;2023-03-25T00:47:57;99171.72;;;15.56;53.00
50592;BME280;36548;50.506;30.834;2023-03-25T00:49:13;99176.00;;;15.67;52.99
50592;BME280;36548;50.506;30.834;2023-03-25T00:50:23;99167.31;;;15.55;52.93
50592;BME280;36548;50.506;30.834;2023-03-25T00:51:39;99165.50;;;15.64;52.99
50592;BME280;36548;50.506;30.834;2023-03-25T00:52:50;99171.72;;;15.56;52.96
50592;BME280;36548;50.506;30.834;2023-03-25T00:54:08;99160.47;;;15.69;52.87
50592;BME280;36548;50.506;30.834;2023-03-25T00:55:18;99165.67;;;15.62;52.68
50592;BME280;36548;50.506;30.834;2023-03-25T00:56:34;99156.77;;;15.70;52.61
50592;BME280;36548;50.506;30.834;2023-03-25T00:57:45;99163.13;;;15.61;52.71
50592;BME280;36548;50.506;30.834;2023-03-25T00:59:01;99161.86;;;15.73;52.56
50592;BME280;36548;50.506;30.834;2023-03-25T01:00:13;99179.84;;;15.56;52.51
50592;BME280;36548;50.506;30.834;2023-03-25T01:01:29;99172.46;;;15.66;52.68
50592;BME280;36548;50.506;30.834;2023-03-25T01:02:39;99182.00;;;15.53;52.81
50592;BME280;36548;50.506;30.834;2023-03-25T01:03:55;99182.38;;;15.58;52.78
50592;BME280;36548;50.506;30.834;2023-03-25T01:05:06;99185.47;;;15.45;52.84
50592;BME280;36548;50.506;30.834;2023-03-25T01:06:27;99179.36;;;15.61;52.82
50592;BME280;36548;50.506;30.834;2023-03-25T01:07:39;99177.27;;;15.55;52.77
50592;BME280;36548;50.506;30.834;2023-03-25T01:08:57;99178.70;;;15.67;52.68
50592;BME280;36548;50.506;30.834;2023-03-25T01:10:08;99172.23;;;15.60;52.57
50592;BME280;36548;50.506;30.834;2023-03-25T01:11:28;99177.38;;;15.71;52.34
50592;BME280;36548;50.506;30.834;2023-03-25T01:12:37;99182.89;;;15.61;52.55
50592;BME280;36548;50.506;30.834;2023-03-25T01:13:54;99172.36;;;15.76;52.52
50592;BME280;36548;50.506;30.834;2023-03-25T01:15:05;99172.63;;;15.65;52.20
50592;BME280;36548;50.506;30.834;2023-03-25T01:16:20;99170.48;;;15.77;52.28
50592;BME280;36548;50.506;30.834;2023-03-25T01:17:30;99177.55;;;15.69;52.36
50592;BME280;36548;50.506;30.834;2023-03-25T01:18:46;99173.60;;;15.82;51.94
50592;BME280;36548;50.506;30.834;2023-03-25T01:19:56;99178.09;;;15.73;52.02
50592;BME280;36548;50.506;30.834;2023-03-25T01:21:11;99178.69;;;15.85;51.86
50592;BME280;36548;50.506;30.834;2023-03-25T01:22:21;99172.36;;;15.76;51.92
50592;BME280;36548;50.506;30.834;2023-03-25T01:23:38;99184.64;;;15.89;51.92
50592;BME280;36548;50.506;30.834;2023-03-25T01:24:48;99190.45;;;15.76;51.89
50592;BME280;36548;50.506;30.834;2023-03-25T01:26:23;99176.69;;;15.87;51.90
50592;BME280;36548;50.506;30.834;2023-03-25T01:27:33;99185.72;;;15.78;51.93
50592;BME280;36548;50.506;30.834;2023-03-25T01:28:48;99176.85;;;15.85;51.96
50592;BME280;36548;50.506;30.834;2023-03-25T01:29:58;99185.87;;;15.76;52.10
50592;BME280;36548;50.506;30.834;2023-03-25T01:31:14;99180.23;;;15.88;52.34
50592;BME280;36548;50.506;30.834;2023-03-25T01:32:23;99184.59;;;15.80;52.62
50592;BME280;36548;50.506;30.834;2023-03-25T01:33:33;99183.42;;;15.83;52.78
50592;BME280;36548;50.506;30.834;2023-03-25T01:34:48;99174.70;;;15.97;52.70
50592;BME280;36548;50.506;30.834;2023-03-25T01:35:58;99181.94;;;15.89;52.87
50592;BME280;36548;50.506;30.834;2023-03-25T01:37:14;99178.12;;;15.99;52.91
50592;BME280;36548;50.506;30.834;2023-03-25T01:38:24;99175.69;;;15.88;53.06
50592;BME280;36548;50.506;30.834;2023-03-25T01:39:41;99177.25;;;15.99;53.18
50592;BME280;36548;50.506;30.834;2023-03-25T01:40:51;99170.41;;;15.87;53.14
50592;BME280;36548;50.506;30.834;2023-03-25T01:42:09;99178.95;;;16.00;53.23
50592;BME280;36548;50.506;30.834;2023-03-25T01:43:22;99170.95;;;15.90;52.72
50592;BME280;36548;50.506;30.834;2023-03-25T01:45:55;99180.06;;;15.89;52.61
50592;BME280;36548;50.506;30.834;2023-03-25T01:47:11;99173.22;;;16.03;52.36
50592;BME280;36548;50.506;30.834;2023-03-25T01:49:41;99178.00;;;16.09;52.10
50592;BME280;36548;50.506;30.834;2023-03-25T01:52:18;99173.92;;;16.05;51.62
50592;BME280;36548;50.506;30.834;2023-03-25T01:53:30;99171.49;;;15.94;51.68
50592;BME280;36548;50.506;30.834;2023-03-25T01:54:49;99172.21;;;16.04;51.59
50592;BME280;36548;50.506;30.834;2023-03-25T01:56:01;99180.23;;;15.88;51.61
50592;BME280;36548;50.506;30.834;2023-03-25T01:57:19;99174.55;;;15.99;51.51
50592;BME280;36548;50.506;30.834;2023-03-25T01:58:31;99173.35;;;15.75;51.15
50592;BME280;36548;50.506;30.834;2023-03-25T01:59:49;99167.52;;;15.80;51.33
50592;BME280;36548;50.506;30.834;2023-03-25T02:01:01;99176.33;;;15.64;51.50
50592;BME280;36548;50.506;30.834;2023-03-25T02:02:17;99169.11;;;15.73;51.56
50592;BME280;36548;50.506;30.834;2023-03-25T02:03:29;99178.87;;;15.65;51.53
50592;BME280;36548;50.506;30.834;2023-03-25T02:04:58;99171.89;;;15.81;51.52
50592;BME280;36548;50.506;30.834;2023-03-25T02:06:13;99180.95;;;15.72;51.59
50592;BME280;36548;50.506;30.834;2023-03-25T02:07:30;99171.60;;;15.84;51.65
50592;BME280;36548;50.506;30.834;2023-03-25T02:08:40;99180.25;;;15.69;51.46
50592;BME280;36548;50.506;30.834;2023-03-25T02:10:02;99166.36;;;15.82;51.68
50592;BME280;36548;50.506;30.834;2023-03-25T02:11:12;99167.11;;;15.75;51.48
50592;BME280;36548;50.506;30.834;2023-03-25T02:12:29;99167.03;;;15.84;51.32
50592;BME280;36548;50.506;30.834;2023-03-25T02:13:40;99170.64;;;15.75;51.35
50592;BME280;36548;50.506;30.834;2023-03-25T02:14:51;99162.53;;;15.75;51.49
50592;BME280;36548;50.506;30.834;2023-03-25T02:21:05;99159.16;;;15.73;51.41
50592;BME280;36548;50.506;30.834;2023-03-25T02:27:01;99147.89;;;15.60;51.15
50592;BME280;36548;50.506;30.834;2023-03-25T02:34:47;99149.81;;;15.67;51.38
50592;BME280;36548;50.506;30.834;2023-03-25T02:38:13;99152.95;;;15.81;51.05
50592;BME280;36548;50.506;30.834;2023-03-25T02:39:33;99159.98;;;15.74;50.88
50592;BME280;36548;50.506;30.834;2023-03-25T02:42:31;99155.37;;;15.84;50.25
50592;BME280;36548;50.506;30.834;2023-03-25T02:43:57;99153.58;;;15.75;50.22
50592;BME280;36548;50.506;30.834;2023-03-25T02:45:19;99151.12;;;15.81;50.14
50592;BME280;36548;50.506;30.834;2023-03-25T02:46:32;99158.61;;;15.69;50.18
50592;BME280;36548;50.506;30.834;2023-03-25T02:49:16;99152.74;;;15.74;50.00
50592;BME280;36548;50.506;30.834;2023-03-25T02:50:35;99164.98;;;15.60;50.12
50592;BME280;36548;50.506;30.834;2023-03-25T02:52:14;99152.58;;;15.76;50.43
50592;BME280;36548;50.506;30.834;2023-03-25T02:53:26;99159.09;;;15.65;50.26
50592;BME280;36548;50.506;30.834;2023-03-25T02:54:43;99150.55;;;15.78;50.19
50592;BME280;36548;50.506;30.834;2023-03-25T02:55:58;99163.80;;;15.63;50.04
50592;BME280;36548;50.506;30.834;2023-03-25T02:57:17;99155.45;;;15.74;50.33
50592;BME280;36548;50.506;30.834;2023-03-25T02:58:28;99157.06;;;15.67;50.34
50592;BME280;36548;50.506;30.834;2023-03-25T02:59:46;99160.23;;;15.80;50.42
50592;BME280;36548;50.506;30.834;2023-03-25T03:00:57;99160.31;;;15.71;50.27
50592;BME280;36548;50.506;30.834;2023-03-25T03:02:13;99156.37;;;15.83;50.53
50592;BME280;36548;50.506;30.834;2023-03-25T03:03:25;99153.52;;;15.66;49.98
50592;BME280;36548;50.506;30.834;2023-03-25T03:04:51;99158.94;;;15.66;49.73
50592;BME280;36548;50.506;30.834;2023-03-25T03:06:07;99162.73;;;15.56;49.69
50592;BME280;36548;50.506;30.834;2023-03-25T03:07:28;99163.64;;;15.38;49.75
50592;BME280;36548;50.506;30.834;2023-03-25T03:10:16;99162.55;;;15.31;49.69
50592;BME280;36548;50.506;30.834;2023-03-25T03:11:48;99159.39;;;15.36;49.72
50592;BME280;36548;50.506;30.834;2023-03-25T03:23:40;99142.36;;;15.43;49.79
50592;BME280;36548;50.506;30.834;2023-03-25T03:24:49;99145.00;;;15.35;49.71
50592;BME280;36548;50.506;30.834;2023-03-25T03:27:35;99150.38;;;15.53;49.64
50592;BME280;36548;50.506;30.834;2023-03-25T03:30:09;99150.95;;;15.39;49.20
50592;BME280;36548;50.506;30.834;2023-03-25T03:32:54;99136.44;;;15.40;49.58
50592;BME280;36548;50.506;30.834;2023-03-25T03:35:40;99141.08;;;15.29;49.66
50592;BME280;36548;50.506;30.834;2023-03-25T03:36:51;99146.73;;;15.18;49.79
50592;BME280;36548;50.506;30.834;2023-03-25T03:38:04;99148.44;;;15.19;49.75
50592;BME280;36548;50.506;30.834;2023-03-25T03:39:34;99145.48;;;15.30;49.70
50592;BME280;36548;50.506;30.834;2023-03-25T03:40:52;99163.50;;;15.22;49.72
50592;BME280;36548;50.506;30.834;2023-03-25T03:42:17;99149.58;;;15.34;49.92
50592;BME280;36548;50.506;30.834;2023-03-25T03:43:42;99158.45;;;15.27;50.02
50592;BME280;36548;50.506;30.834;2023-03-25T03:45:02;99149.80;;;15.41;49.97
50592;BME280;36548;50.506;30.834;2023-03-25T03:47:35;99153.89;;;15.45;50.26
50592;BME280;36548;50.506;30.834;2023-03-25T03:48:48;99165.47;;;15.38;50.30
50592;BME280;36548;50.506;30.834;2023-03-25T03:50:07;99148.73;;;15.34;50.02
50592;BME280;36548;50.506;30.834;2023-03-25T03:52:41;99151.60;;;15.32;50.66
50592;BME280;36548;50.506;30.834;2023-03-25T03:53:59;99159.09;;;15.21;50.79
50592;BME280;36548;50.506;30.834;2023-03-25T03:55:22;99148.03;;;15.32;50.85
50592;BME280;36548;50.506;30.834;2023-03-25T03:59:23;99139.98;;;15.40;50.79
50592;BME280;36548;50.506;30.834;2023-03-25T04:01:54;99135.28;;;15.42;50.95
50592;BME280;36548;50.506;30.834;2023-03-25T04:03:07;99139.75;;;15.33;50.95
50592;BME280;36548;50.506;30.834;2023-03-25T04:04:24;99126.63;;;15.39;51.27
50592;BME280;36548;50.506;30.834;2023-03-25T04:05:37;99135.83;;;15.28;51.23
50592;BME280;36548;50.506;30.834;2023-03-25T04:08:17;99119.28;;;15.31;51.42
50592;BME280;36548;50.506;30.834;2023-03-25T04:11:11;99128.59;;;15.28;51.35
50592;BME280;36548;50.506;30.834;2023-03-25T04:12:36;99131.67;;;15.15;51.48
50592;BME280;36548;50.506;30.834;2023-03-25T04:13:54;99129.91;;;15.24;51.72
50592;BME280;36548;50.506;30.834;2023-03-25T04:15:07;99133.85;;;15.12;51.86
50592;BME280;36548;50.506;30.834;2023-03-25T04:16:18;99126.03;;;15.09;52.18
50592;BME280;36548;50.506;30.834;2023-03-25T04:17:34;99120.53;;;15.18;51.91
50592;BME280;36548;50.506;30.834;2023-03-25T04:18:42;99123.65;;;15.06;51.84
50592;BME280;36548;50.506;30.834;2023-03-25T04:20:01;99126.74;;;15.11;51.85
50592;BME280;36548;50.506;30.834;2023-03-25T04:21:13;99127.30;;;14.96;51.84
50592;BME280;36548;50.506;30.834;2023-03-25T04:22:29;99125.96;;;15.00;52.11
50592;BME280;36548;50.506;30.834;2023-03-25T04:23:38;99124.80;;;14.85;52.37
50592;BME280;36548;50.506;30.834;2023-03-25T04:24:50;99126.83;;;14.83;52.59
50592;BME280;36548;50.506;30.834;2023-03-25T04:26:28;99123.66;;;14.88;52.41
50592;BME280;36548;50.506;30.834;2023-03-25T04:27:41;99138.39;;;14.75;52.53
50592;BME280;36548;50.506;30.834;2023-03-25T04:29:00;99122.89;;;14.77;52.78
50592;BME280;36548;50.506;30.834;2023-03-25T04:30:11;99123.80;;;14.68;52.77
50592;BME280;36548;50.506;30.834;2023-03-25T04:31:28;99128.14;;;14.79;52.82
50592;BME280;36548;50.506;30.834;2023-03-25T04:32:41;99129.77;;;14.72;52.78
50592;BME280;36548;50.506;30.834;2023-03-25T04:33:58;99132.23;;;14.83;52.61
50592;BME280;36548;50.506;30.834;2023-03-25T04:35:08;99133.14;;;14.74;52.65
50592;BME280;36548;50.506;30.834;2023-03-25T04:36:17;99137.40;;;14.76;52.67
50592;BME280;36548;50.506;30.834;2023-03-25T04:37:33;99135.45;;;14.87;52.56
50592;BME280;36548;50.506;30.834;2023-03-25T04:38:44;99131.00;;;14.77;52.72
50592;BME280;36548;50.506;30.834;2023-03-25T04:40:00;99132.31;;;14.91;52.77
50592;BME280;36548;50.506;30.834;2023-03-25T04:41:11;99137.80;;;14.81;52.67
50592;BME280;36548;50.506;30.834;2023-03-25T04:42:27;99129.30;;;14.94;52.73
50592;BME280;36548;50.506;30.834;2023-03-25T04:43:41;99133.78;;;14.86;52.78
50592;BME280;36548;50.506;30.834;2023-03-25T04:44:58;99135.09;;;14.99;52.64
50592;BME280;36548;50.506;30.834;2023-03-25T04:46:11;99139.70;;;14.89;52.75
50592;BME280;36548;50.506;30.834;2023-03-25T04:47:28;99135.77;;;15.02;52.79
50592;BME280;36548;50.506;30.834;2023-03-25T04:48:37;99142.97;;;14.93;52.53
50592;BME280;36548;50.506;30.834;2023-03-25T04:49:55;99135.17;;;15.08;52.80
50592;BME280;36548;50.506;30.834;2023-03-25T04:51:06;99143.88;;;15.02;52.81
50592;BME280;36548;50.506;30.834;2023-03-25T04:52:24;99144.34;;;15.15;52.67
50592;BME280;36548;50.506;30.834;2023-03-25T04:53:35;99137.48;;;15.03;52.61
50592;BME280;36548;50.506;30.834;2023-03-25T04:54:51;99145.66;;;15.11;52.94
50592;BME280;36548;50.506;30.834;2023-03-25T04:56:01;99148.92;;;14.96;52.92
50592;BME280;36548;50.506;30.834;2023-03-25T04:57:17;99146.98;;;15.07;53.29
50592;BME280;36548;50.506;30.834;2023-03-25T04:58:27;99150.59;;;14.97;53.36
50592;BME280;36548;50.506;30.834;2023-03-25T04:59:44;99148.52;;;15.09;53.51
50592;BME280;36548;50.506;30.834;2023-03-25T05:00:54;99149.44;;;15.00;53.49
50592;BME280;36548;50.506;30.834;2023-03-25T05:02:10;99145.34;;;15.14;53.38
50592;BME280;36548;50.506;30.834;2023-03-25T05:03:21;99146.14;;;15.06;53.39
50592;BME280;36548;50.506;30.834;2023-03-25T05:04:44;99148.59;;;15.17;52.84
50592;BME280;36548;50.506;30.834;2023-03-25T05:05:55;99143.44;;;15.06;52.84
50592;BME280;36548;50.506;30.834;2023-03-25T05:07:10;99144.03;;;15.18;52.97
50592;BME280;36548;50.506;30.834;2023-03-25T05:08:21;99151.23;;;15.09;53.23
50592;BME280;36548;50.506;30.834;2023-03-25T05:09:30;99145.82;;;15.09;53.51
50592;BME280;36548;50.506;30.834;2023-03-25T05:10:46;99152.14;;;15.18;53.37
50592;BME280;36548;50.506;30.834;2023-03-25T05:11:55;99146.14;;;15.06;52.85
50592;BME280;36548;50.506;30.834;2023-03-25T05:13:11;99145.34;;;15.14;52.80
50592;BME280;36548;50.506;30.834;2023-03-25T05:14:21;99144.20;;;14.98;53.09
50592;BME280;36548;50.506;30.834;2023-03-25T05:15:38;99135.33;;;15.06;53.40
50592;BME280;36548;50.506;30.834;2023-03-25T05:16:48;99147.06;;;14.97;53.60
50592;BME280;36548;50.506;30.834;2023-03-25T05:18:09;99141.25;;;15.10;53.29
50592;BME280;36548;50.506;30.834;2023-03-25T05:19:20;99132.39;;;14.99;53.40
50592;BME280;36548;50.506;30.834;2023-03-25T05:20:37;99134.84;;;15.11;53.02
50592;BME280;36548;50.506;30.834;2023-03-25T05:21:47;99138.80;;;14.98;52.92
50592;BME280;36548;50.506;30.834;2023-03-25T05:23:03;99125.03;;;15.10;53.04
50592;BME280;36548;50.506;30.834;2023-03-25T05:24:13;99128.81;;;14.99;53.17
50592;BME280;36548;50.506;30.834;2023-03-25T05:25:29;99132.54;;;15.16;53.25
50592;BME280;36548;50.506;30.834;2023-03-25T05:26:41;99136.16;;;15.07;53.61
50592;BME280;36548;50.506;30.834;2023-03-25T05:27:50;99136.01;;;15.08;54.12
50592;BME280;36548;50.506;30.834;2023-03-25T05:29:08;99129.52;;;15.19;54.08
50592;BME280;36548;50.506;30.834;2023-03-25T05:30:18;99135.17;;;15.08;54.13
50592;BME280;36548;50.506;30.834;2023-03-25T05:31:34;99124.27;;;15.17;54.00
50592;BME280;36548;50.506;30.834;2023-03-25T05:32:44;99125.52;;;15.05;54.02
50592;BME280;36548;50.506;30.834;2023-03-25T05:34:08;99122.17;;;15.11;53.66
50592;BME280;36548;50.506;30.834;2023-03-25T05:35:17;99119.88;;;14.98;54.16
50592;BME280;36548;50.506;30.834;2023-03-25T05:36:32;99118.95;;;15.08;54.17
50592;BME280;36548;50.506;30.834;2023-03-25T05:37:41;99124.60;;;14.96;54.02
50592;BME280;36548;50.506;30.834;2023-03-25T05:38:52;99116.78;;;14.93;53.86
50592;BME280;36548;50.506;30.834;2023-03-25T05:40:03;99113.56;;;14.90;54.09
50592;BME280;36548;50.506;30.834;2023-03-25T05:41:20;99116.34;;;14.98;53.94
50592;BME280;36548;50.506;30.834;2023-03-25T05:42:31;99118.56;;;14.85;53.86
50592;BME280;36548;50.506;30.834;2023-03-25T05:43:48;99111.69;;;14.90;53.89
50592;BME280;36548;50.506;30.834;2023-03-25T05:44:59;99116.50;;;14.78;53.62
50592;BME280;36548;50.506;30.834;2023-03-25T05:46:17;99116.70;;;14.85;53.97
50592;BME280;36548;50.506;30.834;2023-03-25T05:47:27;99115.39;;;14.71;54.25
50592;BME280;36548;50.506;30.834;2023-03-25T05:49:05;99112.48;;;14.82;54.07
50592;BME280;36548;50.506;30.834;2023-03-25T05:50:18;99114.70;;;14.69;54.37
50592;BME280;36548;50.506;30.834;2023-03-25T05:51:35;99112.77;;;14.79;54.22
50592;BME280;36548;50.506;30.834;2023-03-25T05:52:46;99109.46;;;14.68;54.36
50592;BME280;36548;50.506;30.834;2023-03-25T05:54:05;99108.52;;;14.77;54.46
50592;BME280;36548;50.506;30.834;2023-03-25T05:55:20;99116.30;;;14.62;54.86
50592;BME280;36548;50.506;30.834;2023-03-25T05:56:36;99108.16;;;14.72;54.96
50592;BME280;36548;50.506;30.834;2023-03-25T05:57:46;99109.34;;;14.59;54.87
50592;BME280;36548;50.506;30.834;2023-03-25T05:59:02;99103.75;;;14.71;54.92
50592;BME280;36548;50.506;30.834;2023-03-25T06:00:13;99114.75;;;14.59;54.58
50592;BME280;36548;50.506;30.834;2023-03-25T06:01:30;99107.76;;;14.66;54.62
50592;BME280;36548;50.506;30.834;2023-03-25T06:02:42;99110.81;;;14.54;54.85
50592;BME280;36548;50.506;30.834;2023-03-25T06:03:57;99108.07;;;14.63;54.90
50592;BME280;36548;50.506;30.834;2023-03-25T06:05:12;99113.67;;;14.52;54.70
50592;BME280;36548;50.506;30.834;2023-03-25T06:06:31;99103.08;;;14.59;54.93
50592;BME280;36548;50.506;30.834;2023-03-25T06:07:51;99113.42;;;14.45;55.21
50592;BME280;36548;50.506;30.834;2023-03-25T06:09:02;99112.86;;;14.42;55.45
50592;BME280;36548;50.506;30.834;2023-03-25T06:10:18;99098.61;;;14.49;55.51
50592;BME280;36548;50.506;30.834;2023-03-25T06:11:26;99109.76;;;14.37;55.70
50592;BME280;36548;50.506;30.834;2023-03-25T06:12:35;99111.47;;;14.38;55.69
50592;BME280;36548;50.506;30.834;2023-03-25T06:13:52;99104.33;;;14.46;55.72
50592;BME280;36548;50.506;30.834;2023-03-25T06:15:02;99108.23;;;14.34;56.04
50592;BME280;36548;50.506;30.834;2023-03-25T06:16:20;99102.77;;;14.44;56.52
50592;BME280;36548;50.506;30.834;2023-03-25T06:17:29;99105.38;;;14.36;56.36
50592;BME280;36548;50.506;30.834;2023-03-25T06:18:48;99097.90;;;14.47;56.43
50592;BME280;36548;50.506;30.834;2023-03-25T06:20:00;99100.52;;;14.39;56.14
50592;BME280;36548;50.506;30.834;2023-03-25T06:21:17;99094.20;;;14.48;56.33
50592;BME280;36548;50.506;30.834;2023-03-25T06:22:30;99096.97;;;14.39;56.30
50592;BME280;36548;50.506;30.834;2023-03-25T06:23:48;99086.95;;;14.49;56.22
50592;BME280;36548;50.506;30.834;2023-03-25T06:24:57;99094.27;;;14.39;56.37
50592;BME280;36548;50.506;30.834;2023-03-25T06:26:09;99091.58;;;14.39;56.36
50592;BME280;36548;50.506;30.834;2023-03-25T06:27:27;99086.95;;;14.49;56.41
50592;BME280;36548;50.506;30.834;2023-03-25T06:28:38;99090.73;;;14.38;56.45
50592;BME280;36548;50.506;30.834;2023-03-25T06:29:47;99088.04;;;14.38;56.35
50592;BME280;36548;50.506;30.834;2023-03-25T06:31:04;99085.27;;;14.48;56.27
50592;BME280;36548;50.506;30.834;2023-03-25T06:32:14;99083.78;;;14.36;56.33
50592;BME280;36548;50.506;30.834;2023-03-25T06:33:24;99081.40;;;14.32;56.66
50592;BME280;36548;50.506;30.834;2023-03-25T06:34:40;99077.77;;;14.42;56.59
50592;BME280;36548;50.506;30.834;2023-03-25T06:35:51;99081.52;;;14.31;56.65
50592;BME280;36548;50.506;30.834;2023-03-25T06:37:08;99086.02;;;14.40;56.75
50592;BME280;36548;50.506;30.834;2023-03-25T06:38:17;99083.54;;;14.29;56.85
50592;BME280;36548;50.506;30.834;2023-03-25T06:39:33;99078.08;;;14.39;56.82
50592;BME280;36548;50.506;30.834;2023-03-25T06:40:46;99088.22;;;14.27;56.96
50592;BME280;36548;50.506;30.834;2023-03-25T06:42:02;99079.23;;;14.36;57.31
50592;BME280;36548;50.506;30.834;2023-03-25T06:43:57;99074.73;;;14.27;57.11
50592;BME280;36548;50.506;30.834;2023-03-25T06:45:56;99079.13;;;14.28;57.42
50592;BME280;36548;50.506;30.834;2023-03-25T06:47:14;99086.86;;;14.41;57.16
50592;BME280;36548;50.506;30.834;2023-03-25T06:48:25;99081.67;;;14.29;56.99
50592;BME280;36548;50.506;30.834;2023-03-25T06:49:34;99088.09;;;14.28;56.89
50592;BME280;36548;50.506;30.834;2023-03-25T06:50:50;99085.46;;;14.37;56.91
50592;BME280;36548;50.506;30.834;2023-03-25T06:51:59;99084.84;;;14.25;56.98
50592;BME280;36548;50.506;30.834;2023-03-25T06:53:09;99082.14;;;14.25;57.00
50592;BME280;36548;50.506;30.834;2023-03-25T06:54:19;99092.94;;;14.25;57.17
50592;BME280;36548;50.506;30.834;2023-03-25T06:55:57;99085.34;;;14.38;56.89
50592;BME280;36548;50.506;30.834;2023-03-25T06:57:06;99086.23;;;14.29;56.67
50592;BME280;36548;50.506;30.834;2023-03-25T06:58:15;99084.38;;;14.29;56.61
50592;BME280;36548;50.506;30.834;2023-03-25T06:59:31;99072.52;;;14.40;56.60
50592;BME280;36548;50.506;30.834;2023-03-25T07:00:42;99084.22;;;14.31;56.58
50592;BME280;36548;50.506;30.834;2023-03-25T07:01:58;99077.61;;;14.43;56.76
50592;BME280;36548;50.506;30.834;2023-03-25T07:03:09;99080.22;;;14.35;56.67
50592;BME280;36548;50.506;30.834;2023-03-25T07:04:25;99071.61;;;14.49;56.71
50592;BME280;36548;50.506;30.834;2023-03-25T07:05:34;99076.22;;;14.39;56.41
50592;BME280;36548;50.506;30.834;2023-03-25T07:06:50;99076.86;;;14.51;56.46
50592;BME280;36548;50.506;30.834;2023-03-25T07:07:59;99083.31;;;14.40;56.18
50592;BME280;36548;50.506;30.834;2023-03-25T07:09:14;99077.02;;;14.49;56.33
50592;BME280;36548;50.506;30.834;2023-03-25T07:10:25;99082.33;;;14.41;56.62
50592;BME280;36548;50.506;30.834;2023-03-25T07:11:41;99078.09;;;14.57;56.28
50592;BME280;36548;50.506;30.834;2023-03-25T07:12:51;99075.15;;;14.50;56.10
50592;BME280;36548;50.506;30.834;2023-03-25T07:14:07;99077.37;;;14.64;55.84
50592;BME280;36548;50.506;30.834;2023-03-25T07:15:16;99083.33;;;14.58;55.59
50592;BME280;36548;50.506;30.834;2023-03-25T07:16:32;99078.88;;;14.67;55.54
50592;BME280;36548;50.506;30.834;2023-03-25T07:17:41;99079.24;;;14.54;55.83
50592;BME280;36548;50.506;30.834;2023-03-25T07:18:57;99077.73;;;14.70;55.69
50592;BME280;36548;50.506;30.834;2023-03-25T07:20:08;99077.78;;;14.60;55.79
50592;BME280;36548;50.506;30.834;2023-03-25T07:21:19;99072.09;;;14.63;55.63
50592;BME280;36548;50.506;30.834;2023-03-25T07:22:40;99073.72;;;14.74;55.65
50592;BME280;36548;50.506;30.834;2023-03-25T07:23:50;99068.68;;;14.61;55.94
50592;BME280;36548;50.506;30.834;2023-03-25T07:25:00;99068.55;;;14.62;55.77